»·PEaware :: USC56 KSBA-KELY

USC56 :: KSBA-KELY

FLIGHT INFORMATION

Flight Status: Arrived
Operator: Unknown
More flights by this operator :: More flights under this callsign
Pilot: Andy P. (22680)
Aircraft: GATES LEARJET LEARJET 35/36
(LJ35)
More flights by this aircraft type
Origin: KSBA Santa Barbara Mun
United States
Destination: KELY Ely
United States
More flights between these airports :: More routes between these airports
Route: MISHN3 NNAVY DAG J9 SUVIE
File this flight plan on PilotEdge
Remarks:
Altitude:
(Current/Filed)
37,000ft
Speed:
(Current/Filed)
465kts
Departed: 23-Jul-20 01:33 PM
Arrived: 23-Jul-20 02:42 PM
Distance/Time
Traveled:
378nm/1:08
Distance/Time
To Go:
Arrived

Flight Plot

Page will automatically refresh every two minutes.

Flight plan parsing failed; only flown route is shown


Map Options




Map Legend


Flown Route
Filed Route
Departure Airport
Arrival Airport
Navaid (VOR, NDB)
Fix

Horizontal Profiles

Position Reports

Time Latitude Longitude Heading Altitude Ground
Speed
23-Jul-20 13:15 34.432080 -119.833372 185 12ft 0kts
23-Jul-20 13:16 34.432080 -119.833372 185 12ft 0kts
23-Jul-20 13:17 34.432080 -119.833372 185 12ft 0kts
23-Jul-20 13:18 34.432080 -119.833372 185 12ft 0kts
23-Jul-20 13:19 34.432080 -119.833372 185 12ft 0kts
23-Jul-20 13:20 34.432080 -119.833372 185 12ft 0kts
23-Jul-20 13:21 34.432080 -119.833372 185 12ft 0kts
23-Jul-20 13:22 34.432080 -119.833372 185 12ft 0kts
23-Jul-20 13:23 34.432080 -119.833372 185 12ft 0kts
23-Jul-20 13:24 34.432080 -119.833372 185 12ft 0kts
23-Jul-20 13:25 34.432080 -119.833372 185 12ft 0kts
23-Jul-20 13:26 34.432080 -119.833372 185 12ft 0kts
23-Jul-20 13:27 34.432080 -119.833372 185 12ft 0kts
23-Jul-20 13:28 34.432079 -119.833372 185 12ft 0kts
23-Jul-20 13:29 34.432436 -119.833464 298 12ft 10kts
23-Jul-20 13:30 34.430144 -119.835275 178 12ft 19kts
23-Jul-20 13:31 34.428422 -119.834651 189 12ft 11kts
23-Jul-20 13:32 34.427312 -119.864540 267 313ft 184kts
23-Jul-20 13:33 34.409607 -119.928908 208 2620ft 228kts
23-Jul-20 13:34 34.345863 -119.930981 145 5205ft 231kts
23-Jul-20 13:35 34.296417 -119.879915 131 7355ft 252kts
23-Jul-20 13:36 34.244316 -119.816902 135 9928ft 273kts
23-Jul-20 13:37 34.202237 -119.738873 93 12964ft 310kts
23-Jul-20 13:38 34.198229 -119.629547 94 16052ft 336kts
23-Jul-20 13:39 34.195740 -119.526688 86 18551ft 350kts
23-Jul-20 13:40 34.200188 -119.415778 86 20912ft 364kts
23-Jul-20 13:41 34.205055 -119.291451 86 23327ft 379kts
23-Jul-20 13:42 34.209587 -119.172704 86 25276ft 389kts
23-Jul-20 13:43 34.223080 -119.041736 74 27045ft 398kts
23-Jul-20 13:44 34.249411 -118.910166 75 28578ft 408kts
23-Jul-20 13:45 34.276104 -118.776019 75 29952ft 417kts
23-Jul-20 13:46 34.303603 -118.636981 75 30856ft 432kts
23-Jul-20 13:47 34.331630 -118.494345 76 31757ft 442kts
23-Jul-20 13:48 34.360129 -118.348340 76 32660ft 449kts
23-Jul-20 13:49 34.388707 -118.200924 76 33558ft 452kts
23-Jul-20 13:50 34.418064 -118.052605 73 34469ft 453kts
23-Jul-20 13:51 34.466736 -117.912179 64 35368ft 453kts
23-Jul-20 13:52 34.520325 -117.774155 64 36234ft 452kts
23-Jul-20 13:53 34.573746 -117.636088 64 36927ft 454kts
23-Jul-20 13:54 34.628180 -117.494817 64 36972ft 470kts
23-Jul-20 13:55 34.684116 -117.349001 64 36978ft 482kts
23-Jul-20 13:56 34.740917 -117.200263 64 36971ft 491kts
23-Jul-20 13:57 34.798625 -117.048446 64 36960ft 497kts
23-Jul-20 13:58 34.856350 -116.895873 65 36913ft 495kts
23-Jul-20 13:59 34.913600 -116.743595 66 36891ft 495kts
23-Jul-20 14:00 34.964922 -116.588332 59 36894ft 495kts
23-Jul-20 14:01 35.055331 -116.462715 44 36903ft 494kts
23-Jul-20 14:02 35.151489 -116.342251 44 36903ft 497kts
23-Jul-20 14:03 35.247955 -116.221227 44 36903ft 500kts
23-Jul-20 14:04 35.345007 -116.099073 44 36903ft 502kts
23-Jul-20 14:05 35.442418 -115.976028 45 36898ft 503kts
23-Jul-20 14:06 35.539947 -115.852371 45 36894ft 506kts
23-Jul-20 14:07 35.637759 -115.727896 45 36888ft 507kts
23-Jul-20 14:08 35.735519 -115.603025 45 36868ft 507kts
23-Jul-20 14:09 35.833101 -115.477908 45 36867ft 507kts
23-Jul-20 14:10 35.930556 -115.352474 45 36867ft 507kts
23-Jul-20 14:11 36.027871 -115.226742 46 36864ft 508kts
23-Jul-20 14:12 36.126105 -115.100518 45 36838ft 510kts
23-Jul-20 14:13 36.225328 -114.975141 45 36801ft 511kts
23-Jul-20 14:14 36.328299 -114.853434 32 36798ft 511kts
23-Jul-20 14:15 36.461389 -114.805954 356 36804ft 501kts
23-Jul-20 14:16 36.600935 -114.807713 356 36815ft 502kts
23-Jul-20 14:17 36.740300 -114.809389 356 36816ft 502kts
23-Jul-20 14:18 36.880064 -114.811099 356 36829ft 502kts
23-Jul-20 14:19 37.019957 -114.812818 356 36875ft 502kts
23-Jul-20 14:20 37.160785 -114.814565 356 35133ft 503kts
23-Jul-20 14:21 37.299214 -114.816284 356 33323ft 499kts
23-Jul-20 14:22 37.440294 -114.818060 357 31509ft 512kts
23-Jul-20 14:23 37.583553 -114.819849 357 29693ft 518kts
23-Jul-20 14:24 37.727818 -114.821655 357 27816ft 517kts
23-Jul-20 14:25 37.871213 -114.823470 357 25947ft 514kts
23-Jul-20 14:26 38.013721 -114.825278 358 24147ft 512kts
23-Jul-20 14:27 38.154813 -114.827068 358 22320ft 499kts
23-Jul-20 14:28 38.290118 -114.828789 358 20562ft 471kts
23-Jul-20 14:29 38.417802 -114.830425 358 18917ft 451kts
23-Jul-20 14:30 38.541719 -114.832020 358 17337ft 442kts
23-Jul-20 14:31 38.664074 -114.833614 358 15749ft 440kts
23-Jul-20 14:32 38.786541 -114.835235 358 14164ft 441kts
23-Jul-20 14:33 38.906167 -114.836744 358 12617ft 421kts
23-Jul-20 14:34 39.021750 -114.837720 359 11118ft 390kts
23-Jul-20 14:35 39.118591 -114.835265 1 10021ft 318kts
23-Jul-20 14:36 39.202751 -114.828015 6 8725ft 286kts
23-Jul-20 14:37 39.276620 -114.814652 9 8077ft 250kts
23-Jul-20 14:38 39.331478 -114.801991 9 7653ft 176kts
23-Jul-20 14:39 39.344741 -114.825295 192 7182ft 163kts
23-Jul-20 14:40 39.305452 -114.836695 192 6271ft 130kts
23-Jul-20 14:41 39.293164 -114.840793 246 6262ft 10kts
23-Jul-20 14:42 39.292463 -114.842492 3 6262ft 0kts
23-Jul-20 14:43 39.292463 -114.842492 3 6262ft 0kts

Navigation Log

Ident Type
Flight plan parsing failed, navigation log unavailable